WetterOnline ( http://www.wetteronline.de )

Wetter aktuell Frankenberg

Aktuelles Wetter: Schauenburg-Elgershausen (317m)

6-stündlich | Neueste Meldungen
Ortszeit Temperatur Wetter
Mo, 18.06. 2:00 12.2° C bedeckt
So, 17.06. 20:00 18.0° C bewölkt
So, 17.06. 14:00 20.0° C wolkig
So, 17.06. 8:00 15.5° C wolkig
So, 17.06. 2:00 16.8° C leichter Regen
Sa, 16.06. 20:00 22.3° C bewölkt
Sa, 16.06. 14:00 23.6° C wolkig
Sa, 16.06. 8:00 17.4° C leicht bewölkt
Ortszeit Temperatur Wetter
Mo, 18.06. 3:30 11.9° C bedeckt
Mo, 18.06. 3:20 11.9° C bedeckt
Mo, 18.06. 3:10 12.0° C bedeckt
Mo, 18.06. 3:00 12.2° C bedeckt
Mo, 18.06. 2:50 12.2° C bedeckt
Mo, 18.06. 2:40 12.0° C bedeckt
Mo, 18.06. 2:30 12.2° C bedeckt
Mo, 18.06. 2:00 12.2° C bedeckt
Mo, 18.06. 1:30 12.3° C bedeckt
Mo, 18.06. 1:00 12.4° C bewölkt
Mo, 18.06. 0:30 13.2° C bewölkt
Ortszeit Relative Feuchte Sichtweite
Mo, 18.06. 2:00 91% 35 km
So, 17.06. 20:00 62% 60 km
So, 17.06. 14:00 46% 50 km
So, 17.06. 8:00 76% 19 km
So, 17.06. 2:00 84% 16 km
Sa, 16.06. 20:00 51% 40 km
Sa, 16.06. 14:00 42% 40 km
Sa, 16.06. 8:00 77% 27 km
Ortszeit Relative Feuchte Sichtweite
Mo, 18.06. 3:30 92% 29 km
Mo, 18.06. 3:20 92% -
Mo, 18.06. 3:10 93% -
Mo, 18.06. 3:00 92% 30 km
Mo, 18.06. 2:50 92% -
Mo, 18.06. 2:40 92% -
Mo, 18.06. 2:30 94% 30 km
Mo, 18.06. 2:00 91% 35 km
Mo, 18.06. 1:30 92% 30 km
Mo, 18.06. 1:00 92% 35 km
Mo, 18.06. 0:30 90% 35 km
Ortszeit Niederschlagsmenge Niederschlagsart
Mo, 18.06. 2:00 2 l/m2 in 6 Std. Regenschauer
So, 17.06. 20:00 0.0 l/m2 in 12 Std. -
So, 17.06. 14:00 0.0 l/m2 in 6 Std. -
So, 17.06. 8:00 0.3 l/m2 in 12 Std. Regen
So, 17.06. 2:00 0.1 l/m2 in 6 Std. Regen
Sa, 16.06. 20:00 0.0 l/m2 in 12 Std. -
Sa, 16.06. 14:00 0.0 l/m2 in 6 Std. -
Sa, 16.06. 8:00 0.0 l/m2 in 12 Std. -
Ortszeit Niederschlagsmenge Niederschlagsart
Mo, 18.06. 3:30 0.0 l/m2 in 1 Std. -
Mo, 18.06. 3:20 keine Meldung -
Mo, 18.06. 3:10 keine Meldung -
Mo, 18.06. 3:00 0.0 l/m2 in 1 Std. -
Mo, 18.06. 2:50 keine Meldung -
Mo, 18.06. 2:40 keine Meldung -
Mo, 18.06. 2:30 0.0 l/m2 in 1 Std. -
Mo, 18.06. 2:00 0.0 l/m2 in 1 Std. Regenschauer
Mo, 18.06. 1:30 0.0 l/m2 in 1 Std. -
Mo, 18.06. 1:00 0.0 l/m2 in 1 Std. -
Mo, 18.06. 0:30 0.0 l/m2 in 1 Std. -
Ortszeit Stärke Spitze Richtung
km/h Bft. km/h Grad Sektor
Mo, 18.06. 2:00 4 1 18 20° N
So, 17.06. 20:00 9 2 31 310° NW
So, 17.06. 14:00 14 3 32 240° SW
So, 17.06. 8:00 9 2 20 290° W
So, 17.06. 2:00 13 3 24 300° NW
Sa, 16.06. 20:00 11 2 29 210° SW
Sa, 16.06. 14:00 13 3 26 220° SW
Sa, 16.06. 8:00 4 1 11 110° O
Ortszeit Stärke Spitze Richtung
km/h Bft. km/h Grad Sektor
Mo, 18.06. 3:30 0 0 4 - -
Mo, 18.06. 3:20 2 1 - 40° NO
Mo, 18.06. 3:10 0 0 - 50° NO
Mo, 18.06. 3:00 0 0 7 - -
Mo, 18.06. 2:50 2 1 - 280° W
Mo, 18.06. 2:40 4 1 - 330° NW
Mo, 18.06. 2:30 2 1 6 280° W
Mo, 18.06. 2:00 4 1 7 20° N
Mo, 18.06. 1:30 4 1 7 20° N
Mo, 18.06. 1:00 6 1 9 340° N
Mo, 18.06. 0:30 7 2 11 300° NW
Ortszeit Untergrenze Bedeckung Gattung
total tief tief mittel hoch
Mo, 18.06. 2:00 2400 m 8/8 8/8 - - -
So, 17.06. 20:00 2700 m 8/8 5/8 - - -
So, 17.06. 14:00 1380 m 7/8 1/8 - - -
So, 17.06. 8:00 3300 m 6/8 6/8 - - -
So, 17.06. 2:00 2400 m 8/8 8/8 - - -
Sa, 16.06. 20:00 2400 m 8/8 6/8 - - -
Sa, 16.06. 14:00 1500 m 7/8 1/8 - - -
Sa, 16.06. 8:00 8400 m 8/8 0/8 - - -
Ortszeit Bedeckungsgrad in Achtel und Wolkenuntergrenze
Mo, 18.06. 3:30 4(1500m) 8(1800m)
Mo, 18.06. 3:20 4(1500m) 8(1800m)
Mo, 18.06. 3:10 8(1800m)
Mo, 18.06. 3:00 7(1800m) 8(2100m)
Mo, 18.06. 2:50 7(1800m) 8(2100m)
Mo, 18.06. 2:40 7(1800m) 8(2100m)
Mo, 18.06. 2:30 3(1800m) 8(2400m)
Mo, 18.06. 2:00 8(2400m)
Mo, 18.06. 1:30 3(1500m) 8(2400m)
Mo, 18.06. 1:00 4(1500m) 4(2100m) 7(2700m)
Mo, 18.06. 0:30 5(1500m) 8(3000m) 8(6300m)
Ortszeit Luftdruck NN (hPa) Tendenz (hPa in 3 Std.)
Mo, 18.06. 2:00 1021 + 0,8
So, 17.06. 20:00 1018 + 0,7
So, 17.06. 14:00 1017 - 0,1
So, 17.06. 8:00 1017 + 1,2
So, 17.06. 2:00 1015 + 0,4
Sa, 16.06. 20:00 1013 - 0,2
Sa, 16.06. 14:00 1014 - 0,8
Sa, 16.06. 8:00 1016 - 0,2
Ortszeit Luftdruck NN (hPa) Tendenz (hPa in 3 Std.)
Mo, 18.06. 3:30 1021 + 0,6
Mo, 18.06. 3:20 1021 keine Meldung
Mo, 18.06. 3:10 1021 keine Meldung
Mo, 18.06. 3:00 1021 + 0,8
Mo, 18.06. 2:50 1021 keine Meldung
Mo, 18.06. 2:40 1021 keine Meldung
Mo, 18.06. 2:30 1021 + 0,9
Mo, 18.06. 2:00 1021 + 0,8
Mo, 18.06. 1:30 1021 + 1,0
Mo, 18.06. 1:00 1021 + 1,2
Mo, 18.06. 0:30 1020 + 1,0
Ortszeit Schneehöhe (cm)
Mo, 18.06. 2:00 -
So, 17.06. 20:00 -
So, 17.06. 14:00 -
So, 17.06. 8:00 -
So, 17.06. 2:00 -
Sa, 16.06. 20:00 -
Sa, 16.06. 14:00 -
Sa, 16.06. 8:00 -
Ortszeit Schneehöhe (cm)
Mo, 18.06. 3:30 -
Mo, 18.06. 3:20 -
Mo, 18.06. 3:10 -
Mo, 18.06. 3:00 -
Mo, 18.06. 2:50 -
Mo, 18.06. 2:40 -
Mo, 18.06. 2:30 -
Mo, 18.06. 2:00 -
Mo, 18.06. 1:30 -
Mo, 18.06. 1:00 -
Mo, 18.06. 0:30 -
Link zu dieser Seite / Seite empfehlen

Das Wetter in ...